Decoded Metar for KM25 ( in ) (IATA:) | Meteo·Mobile Aviation Weather
aviador You're here:

KM25 Decoded Metar

in
Report Time2019-03-23 08:15:00
UTC Time2019-03-23 09:00:26
Flight Rules vfr VFR
Wind100° at 03 kt
W.Rank100° ranks 35
Current wind is below 100° avg. (4.4)
Visibility9999 m
Phenomena:N/A
Clouds:N/A
Expected CloudBase > 2,000 ft AGL from Temp-Dew spread
CeilingNone
Temp05°C
Dew Point00°C (70% RH)
AAT1.9°C
QNH1024 hPa
Raw Report
METAR KM25 230815Z AUTO 10003KT 10SM CLR 05/00 A3023 RMK AO2=

Extra information for KM25:More info

Social comments